createdAt,value
2023-09-21T00:00:51.114Z,69.38
2023-09-21T00:03:35.357Z,69.51
2023-09-21T00:06:02.589Z,69.41
2023-09-21T00:08:29.282Z,68.97
2023-09-21T00:10:56.142Z,69.50
2023-09-21T00:13:27.957Z,69.51
2023-09-21T00:16:06.786Z,69.26
2023-09-21T00:18:34.129Z,69.42
2023-09-21T00:21:03.286Z,69.48
2023-09-21T00:23:31.848Z,69.55
2023-09-21T00:25:59.452Z,69.48
2023-09-21T00:28:28.480Z,69.82
2023-09-21T00:31:02.931Z,69.62
2023-09-21T00:33:31.033Z,69.26
2023-09-21T00:36:04.498Z,69.24
2023-09-21T00:38:32.115Z,69.52
2023-09-21T00:41:01.324Z,69.44
2023-09-21T00:43:29.527Z,69.58
2023-09-21T00:45:58.199Z,69.79
2023-09-21T00:48:27.146Z,70.20
2023-09-21T00:50:57.018Z,70.31
2023-09-21T00:53:27.972Z,70.00
2023-09-21T00:56:22.104Z,70.26
2023-09-21T00:58:51.352Z,70.32
2023-09-21T01:01:22.927Z,70.29
2023-09-21T01:03:56.379Z,69.88
2023-09-21T01:06:23.949Z,70.24
2023-09-21T01:08:52.276Z,70.67
2023-09-21T01:11:20.527Z,70.47
2023-09-21T01:13:47.986Z,70.50
2023-09-21T01:16:16.107Z,70.70
2023-09-21T01:18:43.040Z,71.10
2023-09-21T01:21:22.343Z,70.48
2023-09-21T01:23:57.196Z,70.99
2023-09-21T01:26:29.182Z,71.12
2023-09-21T01:29:01.946Z,70.91
2023-09-21T01:31:32.940Z,71.11
2023-09-21T01:33:59.665Z,70.88
2023-09-21T01:36:27.071Z,70.98
2023-09-21T01:38:54.026Z,71.23
2023-09-21T01:41:22.296Z,71.14
2023-09-21T01:43:48.833Z,71.45
2023-09-21T01:46:19.552Z,70.73
2023-09-21T01:48:46.543Z,70.95
2023-09-21T01:51:18.476Z,71.07
2023-09-21T01:53:45.943Z,71.52
2023-09-21T01:56:12.594Z,71.04
2023-09-21T01:58:39.401Z,71.65
2023-09-21T02:01:05.983Z,71.46
2023-09-21T02:03:32.994Z,71.70
2023-09-21T02:06:00.522Z,71.40
2023-09-21T02:08:27.468Z,71.22
2023-09-21T02:10:54.205Z,71.58
2023-09-21T02:13:23.803Z,71.39
2023-09-21T02:15:52.136Z,71.94
2023-09-21T02:18:19.804Z,72.14
2023-09-21T02:20:52.752Z,71.54
2023-09-21T02:23:21.479Z,71.86
2023-09-21T02:25:48.155Z,71.82
2023-09-21T02:28:14.703Z,72.53
2023-09-21T02:30:46.647Z,71.95
2023-09-21T02:33:16.557Z,72.20
2023-09-21T02:35:44.716Z,72.71
2023-09-21T02:38:12.536Z,72.39
2023-09-21T02:40:41.441Z,72.74
2023-09-21T02:43:13.612Z,72.27
2023-09-21T02:45:40.923Z,72.81
2023-09-21T02:48:08.722Z,72.29
2023-09-21T02:50:35.607Z,73.00
2023-09-21T02:53:11.251Z,72.49
2023-09-21T02:55:39.687Z,72.38
2023-09-21T02:58:11.667Z,72.96
2023-09-21T03:00:50.318Z,72.68
2023-09-21T03:03:18.875Z,72.76
2023-09-21T03:05:48.002Z,73.25
2023-09-21T03:08:20.569Z,72.86
2023-09-21T03:10:53.941Z,73.06
2023-09-21T03:13:26.749Z,73.35
2023-09-21T03:15:58.813Z,73.66
2023-09-21T03:18:26.107Z,73.43
2023-09-21T03:20:54.357Z,73.30
2023-09-21T03:23:23.074Z,73.50
2023-09-21T03:25:50.633Z,73.71
2023-09-21T03:28:20.021Z,73.42
2023-09-21T03:30:50.752Z,73.39
2023-09-21T03:33:22.348Z,74.27
2023-09-21T03:35:49.889Z,73.70
2023-09-21T03:38:19.462Z,73.90
2023-09-21T03:40:51.220Z,73.99
2023-09-21T03:43:18.973Z,73.84
2023-09-21T03:45:46.216Z,73.74
2023-09-21T03:48:13.070Z,73.80
2023-09-21T03:50:42.158Z,73.52
2023-09-21T03:53:10.229Z,74.02
2023-09-21T03:55:39.230Z,73.69
2023-09-21T03:58:07.427Z,73.83
2023-09-21T04:00:34.412Z,73.77
2023-09-21T04:03:09.613Z,73.63
2023-09-21T04:05:42.372Z,73.97
2023-09-21T04:08:09.576Z,73.67
2023-09-21T04:10:36.723Z,73.85
2023-09-21T04:13:05.823Z,74.09
2023-09-21T04:15:32.753Z,73.90
2023-09-21T04:17:59.871Z,73.97
2023-09-21T04:20:34.431Z,74.21
2023-09-21T04:23:01.021Z,74.41
2023-09-21T04:25:28.004Z,74.34
2023-09-21T04:27:55.034Z,74.15
2023-09-21T04:30:23.447Z,74.43
2023-09-21T04:32:51.829Z,74.35
2023-09-21T04:35:20.612Z,74.47
2023-09-21T04:37:48.809Z,74.18
2023-09-21T04:40:15.799Z,74.42
2023-09-21T04:42:46.735Z,74.50
2023-09-21T04:45:19.183Z,74.21
2023-09-21T04:47:49.605Z,73.99
2023-09-21T04:50:18.788Z,74.28
2023-09-21T04:52:50.794Z,74.30
2023-09-21T04:55:19.322Z,74.08
2023-09-21T04:57:46.928Z,74.28
2023-09-21T05:00:15.868Z,74.44
2023-09-21T05:02:44.367Z,74.44
2023-09-21T05:05:14.923Z,74.23
2023-09-21T05:07:47.826Z,74.16
2023-09-21T05:10:14.652Z,74.48
2023-09-21T05:12:41.597Z,74.37
2023-09-21T05:15:11.804Z,74.25
2023-09-21T05:17:38.476Z,74.25
2023-09-21T05:20:07.452Z,74.36
2023-09-21T05:22:34.422Z,74.42
2023-09-21T05:25:03.377Z,74.17
2023-09-21T05:27:30.403Z,74.02
2023-09-21T05:30:02.180Z,73.85
2023-09-21T05:32:33.428Z,73.93
2023-09-21T05:35:00.304Z,73.65
2023-09-21T05:37:27.054Z,73.63
2023-09-21T05:39:53.927Z,73.55
2023-09-21T05:42:24.034Z,73.46
2023-09-21T05:44:50.888Z,73.53
2023-09-21T05:47:17.473Z,73.29
2023-09-21T05:49:44.315Z,73.13
2023-09-21T05:52:14.088Z,73.21
2023-09-21T05:54:42.908Z,73.10
2023-09-21T05:57:10.122Z,72.98
2023-09-21T05:59:37.439Z,72.66
2023-09-21T06:02:05.843Z,72.59
2023-09-21T06:04:34.822Z,72.39
2023-09-21T06:07:01.510Z,72.47
2023-09-21T06:09:34.630Z,72.37
2023-09-21T06:12:01.574Z,72.31
2023-09-21T06:14:28.306Z,72.16
2023-09-21T06:16:58.904Z,72.19
2023-09-21T06:19:25.879Z,71.92
2023-09-21T06:21:57.397Z,71.99
2023-09-21T06:24:27.008Z,71.75
2023-09-21T06:26:55.699Z,71.51
2023-09-21T06:29:24.357Z,71.56
2023-09-21T06:32:11.319Z,71.48
2023-09-21T06:34:43.032Z,71.33
2023-09-21T06:37:10.242Z,71.17
2023-09-21T06:39:36.935Z,71.09
2023-09-21T06:42:04.358Z,71.42
2023-09-21T06:44:32.152Z,70.90
2023-09-21T06:46:58.967Z,70.79
2023-09-21T06:49:27.141Z,70.69
2023-09-21T06:51:54.611Z,70.38
2023-09-21T06:54:23.836Z,70.21
2023-09-21T06:56:50.430Z,69.91
2023-09-21T06:59:17.384Z,70.17
2023-09-21T07:01:43.959Z,69.63
2023-09-21T07:04:10.662Z,69.45
2023-09-21T07:06:37.575Z,69.14
2023-09-21T07:09:04.575Z,69.05
2023-09-21T07:11:33.985Z,69.50
2023-09-21T07:14:00.478Z,69.25
2023-09-21T07:16:27.564Z,69.36
2023-09-21T07:18:54.338Z,69.00
2023-09-21T07:21:21.090Z,69.30
2023-09-21T07:23:47.833Z,69.04
2023-09-21T07:26:19.614Z,69.09
2023-09-21T07:28:47.391Z,68.65
2023-09-21T07:31:14.099Z,68.34
2023-09-21T07:33:40.941Z,68.06
2023-09-21T07:36:08.949Z,68.09
2023-09-21T07:38:36.116Z,67.59
2023-09-21T07:41:03.655Z,67.61
2023-09-21T07:43:30.152Z,67.47
2023-09-21T07:45:57.826Z,67.35
2023-09-21T07:48:26.377Z,66.70
2023-09-21T07:50:56.019Z,67.01
2023-09-21T07:53:28.998Z,66.40
2023-09-21T07:56:00.094Z,66.28
2023-09-21T07:58:26.867Z,66.41
2023-09-21T08:00:56.488Z,66.03
2023-09-21T08:03:26.911Z,65.77
2023-09-21T08:05:54.182Z,66.17
2023-09-21T08:08:21.562Z,65.89
2023-09-21T08:10:51.118Z,66.00
2023-09-21T08:13:17.755Z,65.86
2023-09-21T08:15:45.410Z,65.63
2023-09-21T08:18:12.129Z,65.58
2023-09-21T08:20:42.324Z,65.09
2023-09-21T08:23:09.564Z,64.61
2023-09-21T08:25:38.087Z,64.43
2023-09-21T08:28:05.154Z,64.27
2023-09-21T08:30:32.308Z,64.43
2023-09-21T08:32:59.329Z,64.57
2023-09-21T08:35:26.429Z,64.31
2023-09-21T08:37:53.277Z,64.41
2023-09-21T08:40:22.595Z,64.27
2023-09-21T08:42:54.128Z,64.02
2023-09-21T08:45:23.706Z,64.10
2023-09-21T08:47:50.639Z,63.82
2023-09-21T08:50:23.529Z,63.47
2023-09-21T08:52:53.951Z,63.35
2023-09-21T08:55:25.794Z,63.20
2023-09-21T08:57:53.692Z,63.10
2023-09-21T09:00:22.887Z,63.00
2023-09-21T09:02:51.084Z,62.85
2023-09-21T09:05:18.920Z,62.64
2023-09-21T09:07:45.554Z,62.32
2023-09-21T09:10:13.894Z,62.38
2023-09-21T09:12:41.574Z,61.86
2023-09-21T09:15:10.578Z,61.66
2023-09-21T09:17:37.426Z,61.40
2023-09-21T09:20:06.417Z,61.21
2023-09-21T09:22:35.000Z,61.04
2023-09-21T09:25:07.812Z,61.11
2023-09-21T09:27:35.484Z,60.59
2023-09-21T09:30:05.485Z,60.22
2023-09-21T09:32:41.802Z,60.23
2023-09-21T09:35:13.669Z,59.43
2023-09-21T09:37:42.761Z,59.54
2023-09-21T09:40:14.196Z,59.43
2023-09-21T09:42:41.842Z,59.51
2023-09-21T09:45:16.048Z,58.95
2023-09-21T09:47:51.410Z,58.80
2023-09-21T09:50:24.894Z,58.91
2023-09-21T09:53:01.530Z,58.58
2023-09-21T09:55:33.368Z,57.92
2023-09-21T09:58:06.595Z,57.56
2023-09-21T10:00:36.230Z,57.65
2023-09-21T10:03:04.805Z,57.45
2023-09-21T10:05:31.747Z,56.87
2023-09-21T10:08:00.816Z,56.84
2023-09-21T10:10:36.737Z,57.26
2023-09-21T10:13:03.744Z,56.73
2023-09-21T10:15:30.457Z,56.51
2023-09-21T10:18:02.490Z,56.58
2023-09-21T10:20:32.897Z,56.72
2023-09-21T10:23:04.839Z,55.53
2023-09-21T10:25:39.082Z,55.77
2023-09-21T10:28:35.376Z,55.53
2023-09-21T10:31:09.600Z,55.29
2023-09-21T10:33:37.242Z,54.91
2023-09-21T10:36:04.119Z,54.70
2023-09-21T10:38:30.702Z,54.23
2023-09-21T10:40:57.773Z,53.95
2023-09-21T10:43:36.752Z,53.82
2023-09-21T10:46:28.477Z,53.68
2023-09-21T10:49:14.667Z,53.57
2023-09-21T10:51:41.356Z,53.62
2023-09-21T10:54:11.153Z,53.28
2023-09-21T10:56:38.296Z,53.50
2023-09-21T10:59:14.748Z,53.10
2023-09-21T11:01:41.548Z,52.96
2023-09-21T11:04:08.363Z,52.85
2023-09-21T11:06:35.075Z,53.12
2023-09-21T11:09:02.927Z,53.45
2023-09-21T11:11:29.616Z,52.79
2023-09-21T11:13:58.891Z,52.46
2023-09-21T11:16:25.704Z,52.17
2023-09-21T11:18:54.210Z,52.28
2023-09-21T11:21:22.522Z,52.60
2023-09-21T11:23:50.340Z,52.31
2023-09-21T11:26:17.921Z,52.31
2023-09-21T11:28:44.883Z,52.31
2023-09-21T11:31:15.507Z,51.48
2023-09-21T11:33:42.980Z,51.40
2023-09-21T11:36:10.359Z,51.75
2023-09-21T11:38:37.522Z,51.71
2023-09-21T11:41:04.958Z,51.74
2023-09-21T11:43:32.042Z,51.51
2023-09-21T11:46:05.908Z,51.33
2023-09-21T11:48:33.802Z,51.50
2023-09-21T11:51:07.733Z,50.67
2023-09-21T11:53:34.937Z,50.54
2023-09-21T11:56:02.598Z,50.70
2023-09-21T11:58:33.123Z,50.77
2023-09-21T12:01:05.926Z,50.09
2023-09-21T12:03:37.914Z,50.34
2023-09-21T12:06:10.966Z,50.52
2023-09-21T12:08:46.858Z,50.24
2023-09-21T12:11:23.571Z,50.24
2023-09-21T12:13:56.903Z,50.42
2023-09-21T12:16:24.120Z,50.22
2023-09-21T12:18:50.813Z,49.87
2023-09-21T12:21:21.047Z,49.85
2023-09-21T12:23:49.922Z,49.66
2023-09-21T12:26:17.667Z,49.81
2023-09-21T12:28:45.108Z,49.51
2023-09-21T12:31:14.619Z,49.02
2023-09-21T12:33:52.169Z,49.29
2023-09-21T12:36:30.274Z,49.06
2023-09-21T12:39:10.004Z,48.90
2023-09-21T12:41:39.568Z,48.81
2023-09-21T12:44:10.994Z,48.46
2023-09-21T12:46:37.769Z,48.90
2023-09-21T12:49:06.425Z,48.32
2023-09-21T12:51:34.825Z,48.22
2023-09-21T12:54:05.143Z,48.45
2023-09-21T12:56:31.943Z,48.25
2023-09-21T12:59:01.164Z,47.59
2023-09-21T13:01:33.969Z,47.50
2023-09-21T13:04:01.529Z,47.64
2023-09-21T13:06:29.024Z,47.83
2023-09-21T13:08:56.973Z,47.64
2023-09-21T13:11:25.089Z,47.40
2023-09-21T13:13:51.826Z,47.21
2023-09-21T13:16:18.874Z,46.91
2023-09-21T13:18:46.418Z,47.15
2023-09-21T13:21:16.237Z,46.77
2023-09-21T13:23:43.147Z,46.93
2023-09-21T13:26:13.450Z,47.05
2023-09-21T13:28:40.845Z,46.85
2023-09-21T13:31:10.393Z,46.97
2023-09-21T13:33:37.569Z,46.85
2023-09-21T13:36:04.775Z,47.11
2023-09-21T13:38:31.309Z,47.16
2023-09-21T13:40:58.234Z,46.88
2023-09-21T13:43:26.684Z,46.95
2023-09-21T13:45:53.499Z,46.86
2023-09-21T13:48:22.640Z,46.82
2023-09-21T13:50:50.875Z,46.95
2023-09-21T13:53:18.289Z,46.53
2023-09-21T13:55:44.809Z,46.37
2023-09-21T13:58:11.408Z,45.88
2023-09-21T14:00:38.130Z,46.34
2023-09-21T14:03:05.970Z,46.18
2023-09-21T14:05:33.852Z,45.47
2023-09-21T14:08:00.619Z,45.88
2023-09-21T14:10:27.233Z,45.39
2023-09-21T14:12:54.366Z,45.71
2023-09-21T14:15:27.108Z,45.43
2023-09-21T14:17:54.764Z,45.54
2023-09-21T14:20:21.957Z,45.23
2023-09-21T14:22:48.919Z,45.00
2023-09-21T14:25:15.840Z,45.17
2023-09-21T14:27:43.582Z,44.85
2023-09-21T14:30:12.180Z,44.67
2023-09-21T14:32:39.030Z,44.59
2023-09-21T14:35:06.968Z,44.74
2023-09-21T14:37:33.566Z,44.47
2023-09-21T14:40:00.670Z,44.10
2023-09-21T14:42:27.598Z,43.89
2023-09-21T14:44:54.759Z,43.29
2023-09-21T14:47:21.461Z,42.38
2023-09-21T14:49:48.110Z,40.68
2023-09-21T14:52:15.163Z,39.03
2023-09-21T14:54:43.289Z,37.12
2023-09-21T14:57:11.290Z,36.36
2023-09-21T14:59:40.314Z,36.02
2023-09-21T15:02:14.750Z,34.46
2023-09-21T15:04:43.647Z,33.74
2023-09-21T15:07:10.857Z,33.12
2023-09-21T15:09:37.636Z,33.02
2023-09-21T15:12:28.014Z,32.97
2023-09-21T15:14:55.734Z,34.22
2023-09-21T15:17:22.947Z,34.87
2023-09-21T15:19:51.026Z,34.78
2023-09-21T15:22:19.479Z,35.36
2023-09-21T15:24:48.021Z,35.86
2023-09-21T15:27:17.737Z,36.19
2023-09-21T15:29:47.284Z,36.91
2023-09-21T15:32:16.075Z,37.53
2023-09-21T15:34:44.919Z,37.92
2023-09-21T15:37:11.523Z,38.54
2023-09-21T15:39:38.309Z,38.38
2023-09-21T15:42:05.505Z,39.27
2023-09-21T15:44:32.253Z,39.25
2023-09-21T15:47:02.702Z,39.87
2023-09-21T15:49:30.143Z,40.23
2023-09-21T15:51:59.331Z,40.70
2023-09-21T15:54:30.183Z,41.08
2023-09-21T15:56:58.352Z,41.60
2023-09-21T15:59:25.144Z,41.80
2023-09-21T16:01:51.778Z,42.00
2023-09-21T16:04:19.030Z,42.44
2023-09-21T16:06:47.162Z,42.61
2023-09-21T16:09:22.781Z,43.02
2023-09-21T16:11:49.592Z,43.40
2023-09-21T16:14:16.439Z,43.66
2023-09-21T16:16:43.575Z,43.95
2023-09-21T16:19:10.670Z,44.27
2023-09-21T16:21:40.947Z,44.69
2023-09-21T16:24:07.924Z,44.82
2023-09-21T16:26:34.567Z,45.23
2023-09-21T16:29:03.772Z,45.44
2023-09-21T16:31:31.260Z,45.63
2023-09-21T16:33:58.001Z,45.90
2023-09-21T16:36:24.757Z,46.18
2023-09-21T16:38:51.322Z,46.44
2023-09-21T16:41:18.560Z,46.58
2023-09-21T16:43:45.161Z,47.21
2023-09-21T16:46:18.763Z,47.33
2023-09-21T16:48:58.808Z,47.77
2023-09-21T16:51:25.447Z,47.90
2023-09-21T16:53:52.259Z,48.19
2023-09-21T16:56:19.241Z,48.08
2023-09-21T16:58:48.099Z,48.60
2023-09-21T17:01:14.961Z,48.41
2023-09-21T17:03:42.973Z,48.75
2023-09-21T17:06:12.389Z,49.11
2023-09-21T17:08:39.101Z,49.11
2023-09-21T17:11:12.568Z,49.46
2023-09-21T17:13:39.333Z,49.48
2023-09-21T17:16:06.315Z,49.95
2023-09-21T17:18:33.349Z,50.23
2023-09-21T17:21:00.932Z,50.43
2023-09-21T17:23:27.668Z,50.69
2023-09-21T17:25:54.331Z,50.81
2023-09-21T17:28:20.974Z,50.91
2023-09-21T17:30:48.839Z,51.02
2023-09-21T17:33:16.107Z,51.24
2023-09-21T17:35:43.317Z,51.73
2023-09-21T17:38:11.342Z,51.69
2023-09-21T17:40:38.749Z,52.06
2023-09-21T17:43:05.271Z,52.01
2023-09-21T17:45:31.995Z,52.12
2023-09-21T17:48:01.765Z,52.37
2023-09-21T17:50:29.948Z,52.19
2023-09-21T17:52:57.953Z,52.53
2023-09-21T17:55:28.471Z,52.68
2023-09-21T17:57:56.126Z,52.81
2023-09-21T18:00:22.749Z,52.97
2023-09-21T18:02:49.896Z,52.71
2023-09-21T18:05:19.996Z,53.17
2023-09-21T18:07:46.526Z,52.97
2023-09-21T18:10:13.390Z,53.01
2023-09-21T18:12:47.291Z,53.04
2023-09-21T18:15:17.901Z,53.22
2023-09-21T18:17:45.831Z,53.37
2023-09-21T18:20:13.789Z,53.45
2023-09-21T18:22:40.381Z,53.57
2023-09-21T18:25:07.758Z,53.19
2023-09-21T18:27:34.629Z,53.19
2023-09-21T18:30:01.356Z,53.43
2023-09-21T18:32:28.473Z,53.21
2023-09-21T18:34:55.430Z,53.33
2023-09-21T18:37:22.129Z,53.54
2023-09-21T18:39:48.763Z,53.66
2023-09-21T18:42:18.472Z,53.71
2023-09-21T18:44:46.985Z,53.66
2023-09-21T18:47:19.985Z,53.69
2023-09-21T18:49:46.900Z,53.83
2023-09-21T18:52:14.493Z,53.99
2023-09-21T18:54:43.487Z,54.01
2023-09-21T18:57:10.611Z,53.85
2023-09-21T18:59:37.566Z,54.27
2023-09-21T19:02:09.389Z,54.27
2023-09-21T19:04:36.775Z,54.39
2023-09-21T19:07:04.367Z,54.43
2023-09-21T19:09:32.049Z,54.44
2023-09-21T19:12:03.202Z,54.63
2023-09-21T19:14:30.415Z,54.77
2023-09-21T19:16:58.725Z,54.78
2023-09-21T19:19:26.195Z,55.04
2023-09-21T19:21:56.882Z,55.05
2023-09-21T19:24:24.564Z,55.15
2023-09-21T19:26:51.399Z,55.37
2023-09-21T19:29:18.166Z,55.22
2023-09-21T19:31:45.959Z,55.39
2023-09-21T19:34:13.588Z,55.43
2023-09-21T19:36:40.450Z,55.81
2023-09-21T19:39:07.463Z,55.91
2023-09-21T19:41:34.395Z,55.90
2023-09-21T19:44:01.297Z,55.97
2023-09-21T19:46:35.586Z,56.05
2023-09-21T19:49:03.532Z,56.28
2023-09-21T19:51:30.280Z,56.53
2023-09-21T19:54:19.428Z,56.47
2023-09-21T19:56:45.942Z,56.28
2023-09-21T19:59:13.290Z,56.55
2023-09-21T20:01:40.289Z,56.50
2023-09-21T20:04:07.134Z,56.72
2023-09-21T20:06:35.040Z,56.92
2023-09-21T20:09:02.154Z,57.11
2023-09-21T20:11:29.011Z,57.10
2023-09-21T20:13:57.471Z,57.18
2023-09-21T20:16:25.440Z,57.34
2023-09-21T20:18:53.119Z,57.37
2023-09-21T20:21:19.731Z,57.37
2023-09-21T20:23:53.658Z,57.53
2023-09-21T20:26:20.460Z,57.86
2023-09-21T20:28:47.294Z,57.84
2023-09-21T20:31:14.319Z,57.97
2023-09-21T20:33:42.662Z,58.20
2023-09-21T20:36:10.625Z,58.38
2023-09-21T20:38:37.290Z,58.47
2023-09-21T20:41:04.556Z,58.47
2023-09-21T20:43:31.316Z,58.59
2023-09-21T20:45:57.913Z,59.09
2023-09-21T20:48:24.713Z,59.15
2023-09-21T20:50:51.704Z,59.15
2023-09-21T20:53:18.300Z,59.16
2023-09-21T20:55:45.155Z,59.45
2023-09-21T20:58:11.611Z,59.46
2023-09-21T21:00:38.246Z,59.58
2023-09-21T21:03:04.927Z,59.59
2023-09-21T21:05:31.734Z,59.74
2023-09-21T21:07:58.222Z,59.72
2023-09-21T21:10:24.985Z,60.14
2023-09-21T21:12:51.958Z,59.93
2023-09-21T21:15:18.726Z,60.16
2023-09-21T21:17:45.504Z,60.12
2023-09-21T21:20:12.142Z,60.38
2023-09-21T21:22:41.355Z,60.50
2023-09-21T21:25:09.345Z,60.54
2023-09-21T21:27:36.173Z,60.48
2023-09-21T21:30:09.560Z,60.78
2023-09-21T21:32:36.280Z,60.70
2023-09-21T21:35:03.041Z,60.93
2023-09-21T21:37:29.679Z,60.82
2023-09-21T21:39:56.202Z,60.92
2023-09-21T21:42:29.390Z,61.03
2023-09-21T21:44:56.507Z,61.18
2023-09-21T21:47:23.110Z,61.57
2023-09-21T21:49:49.716Z,61.44
2023-09-21T21:52:16.800Z,61.39
2023-09-21T21:54:43.525Z,61.38
2023-09-21T21:57:11.313Z,61.52
2023-09-21T21:59:38.016Z,61.48
2023-09-21T22:02:04.895Z,61.53
2023-09-21T22:04:32.114Z,61.71
2023-09-21T22:06:58.549Z,61.84
2023-09-21T22:09:25.260Z,61.86
2023-09-21T22:11:54.610Z,62.02
2023-09-21T22:14:21.549Z,61.88
2023-09-21T22:16:48.225Z,61.91
2023-09-21T22:19:15.108Z,62.01
2023-09-21T22:21:42.940Z,62.00
2023-09-21T22:24:09.786Z,62.07
2023-09-21T22:26:36.772Z,62.40
2023-09-21T22:29:03.720Z,62.72
2023-09-21T22:31:31.209Z,62.45
2023-09-21T22:33:58.041Z,62.50
2023-09-21T22:36:28.568Z,62.81
2023-09-21T22:38:56.116Z,62.72
2023-09-21T22:41:22.877Z,62.88
2023-09-21T22:43:49.978Z,62.68
2023-09-21T22:46:17.426Z,62.81
2023-09-21T22:48:48.673Z,63.17
2023-09-21T22:51:18.831Z,63.11
2023-09-21T22:53:45.811Z,62.93
2023-09-21T22:56:20.968Z,63.17
2023-09-21T22:58:54.667Z,63.67
2023-09-21T23:01:34.090Z,63.51
2023-09-21T23:04:00.619Z,63.70
2023-09-21T23:06:27.428Z,64.03
2023-09-21T23:08:54.642Z,64.07
2023-09-21T23:11:22.031Z,63.88
2023-09-21T23:13:55.558Z,64.06
2023-09-21T23:16:22.717Z,64.09
2023-09-21T23:18:49.489Z,63.97
2023-09-21T23:21:17.488Z,64.23
2023-09-21T23:23:44.272Z,64.13
2023-09-21T23:26:11.047Z,64.44
2023-09-21T23:28:44.078Z,64.65
2023-09-21T23:31:11.484Z,64.52
2023-09-21T23:33:39.466Z,64.99
2023-09-21T23:36:18.052Z,64.63
2023-09-21T23:38:47.658Z,64.86
2023-09-21T23:41:14.829Z,64.94
2023-09-21T23:43:41.715Z,65.08
2023-09-21T23:46:09.734Z,65.13
2023-09-21T23:48:38.920Z,65.41
2023-09-21T23:51:07.919Z,65.44
2023-09-21T23:53:34.528Z,65.45
2023-09-21T23:56:04.068Z,65.37
2023-09-21T23:58:31.555Z,65.64
